Time;durP1;ratioP1;P1;durP2;ratioP2;P2;SDS_P1;SDS_P2;PMS_P1;PMS_P2;Temp;Humidity;BMP_temperature;BMP_pressure;BME280_temperature;BME280_humidity;BME280_pressure;Samples;Min_cycle;Max_cycle;Signal;HPM_P1;HPM_P2
2023/03/14 00:01:46;;;;;;;10.30;2.60;;;11.00;99.90;;;;;;5049121;28;20037;-79
2023/03/14 00:04:12;;;;;;;6.57;2.90;;;10.90;99.90;;;;;;5030464;28;20146;-79
2023/03/14 00:06:37;;;;;;;9.10;2.97;;;10.90;99.90;;;;;;5063128;28;20072;-78
2023/03/14 00:09:03;;;;;;;11.57;2.92;;;10.90;99.90;;;;;;5038193;28;20060;-79
2023/03/14 00:11:29;;;;;;;8.85;2.95;;;10.90;99.90;;;;;;5013804;28;20042;-79
2023/03/14 00:13:55;;;;;;;9.27;2.70;;;10.90;99.90;;;;;;5046511;28;20053;-78
2023/03/14 00:16:21;;;;;;;12.38;2.78;;;11.00;99.90;;;;;;5023564;28;20048;-78
2023/03/14 00:18:47;;;;;;;6.72;2.47;;;11.00;99.90;;;;;;5029149;28;20560;-79
2023/03/14 00:21:13;;;;;;;12.00;2.90;;;11.00;99.90;;;;;;5031479;28;20561;-79
2023/03/14 00:23:41;;;;;;;7.00;2.00;;;11.00;99.90;;;;;;5046249;28;20045;-78
2023/03/14 00:26:12;;;;;;;5.57;2.28;;;11.00;99.90;;;;;;5028851;28;20061;-79
2023/03/14 00:28:38;;;;;;;7.88;2.35;;;11.10;99.90;;;;;;5030780;28;20382;-78
2023/03/14 00:31:06;;;;;;;6.78;2.90;;;11.10;99.90;;;;;;5030632;28;20045;-77
2023/03/14 00:33:32;;;;;;;7.47;3.28;;;10.90;99.90;;;;;;5030988;28;20067;-74
2023/03/14 00:36:04;;;;;;;9.70;3.38;;;10.50;99.90;;;;;;5030982;28;20120;-72
2023/03/14 00:38:31;;;;;;;7.65;2.80;;;10.20;99.90;;;;;;5055048;28;20114;-72
2023/03/14 00:40:57;;;;;;;9.45;3.17;;;10.00;99.90;;;;;;5030402;28;20049;-71
2023/03/14 00:43:23;;;;;;;12.57;3.72;;;9.80;99.90;;;;;;5029993;28;20059;-72
2023/03/14 00:45:52;;;;;;;9.25;3.42;;;9.70;99.90;;;;;;5047465;28;20058;-73
2023/03/14 00:48:19;;;;;;;8.40;3.35;;;9.70;99.90;;;;;;5030739;28;20439;-72
2023/03/14 00:50:46;;;;;;;7.28;3.30;;;9.60;99.90;;;;;;5030646;28;20478;-73
2023/03/14 00:53:12;;;;;;;6.70;3.03;;;9.60;99.90;;;;;;5030847;28;20049;-73
2023/03/14 00:55:39;;;;;;;8.30;3.50;;;9.60;99.90;;;;;;5029334;28;20498;-73
2023/03/14 00:58:05;;;;;;;7.25;3.63;;;9.60;99.90;;;;;;5029651;28;20046;-73
2023/03/14 01:00:32;;;;;;;7.07;3.72;;;9.80;99.90;;;;;;5030639;28;20056;-73
2023/03/14 01:02:58;;;;;;;7.88;3.97;;;9.80;99.90;;;;;;5030194;28;20079;-73
2023/03/14 01:05:24;;;;;;;9.93;4.72;;;9.80;99.90;;;;;;5029391;28;20033;-73
2023/03/14 01:07:50;;;;;;;8.15;4.70;;;9.80;99.90;;;;;;5030806;28;20041;-73
2023/03/14 01:10:16;;;;;;;7.05;3.83;;;9.80;99.90;;;;;;5030387;28;20095;-77
2023/03/14 01:12:42;;;;;;;6.47;4.07;;;9.80;99.90;;;;;;5030891;28;20170;-74
2023/03/14 01:15:08;;;;;;;6.65;3.55;;;9.70;99.90;;;;;;5030314;28;20627;-74
2023/03/14 01:17:34;;;;;;;5.55;2.80;;;9.70;99.90;;;;;;5030327;28;20171;-74
2023/03/14 01:20:00;;;;;;;9.82;2.75;;;9.60;99.90;;;;;;5030843;28;20121;-75
2023/03/14 01:22:26;;;;;;;4.93;2.38;;;9.50;99.90;;;;;;5030696;28;20433;-73
2023/03/14 01:24:52;;;;;;;4.13;2.28;;;9.30;99.90;;;;;;5030563;28;20099;-73
2023/03/14 01:27:17;;;;;;;4.43;2.03;;;9.20;99.90;;;;;;5053803;28;20041;-75
2023/03/14 01:29:43;;;;;;;4.65;2.30;;;9.00;99.90;;;;;;5029193;28;20171;-75
2023/03/14 01:32:09;;;;;;;7.22;2.30;;;9.00;99.90;;;;;;5030099;28;20045;-75
2023/03/14 01:34:35;;;;;;;8.10;2.53;;;8.90;99.90;;;;;;5034452;28;20476;-74
2023/03/14 01:37:00;;;;;;;7.60;2.67;;;8.90;99.90;;;;;;5048520;28;20115;-75
2023/03/14 01:39:26;;;;;;;6.30;3.30;;;8.80;99.90;;;;;;5032234;28;20049;-76
2023/03/14 01:41:52;;;;;;;5.60;2.60;;;8.90;99.90;;;;;;5034614;28;20052;-75
2023/03/14 01:44:18;;;;;;;7.38;3.72;;;8.90;99.90;;;;;;5032609;28;20478;-76
2023/03/14 01:46:48;;;;;;;8.95;3.58;;;8.90;99.90;;;;;;5033274;28;20048;-76
2023/03/14 01:49:29;;;;;;;10.85;3.50;;;9.00;99.90;;;;;;5034370;28;20053;-76
2023/03/14 01:52:00;;;;;;;10.10;3.42;;;9.00;99.90;;;;;;5033011;28;20057;-76
2023/03/14 01:54:42;;;;;;;6.80;3.13;;;9.00;99.90;;;;;;5034465;28;20056;-76
2023/03/14 01:57:14;;;;;;;11.73;3.70;;;8.90;99.90;;;;;;5056707;28;20056;-75
2023/03/14 01:59:43;;;;;;;9.15;3.53;;;8.90;99.90;;;;;;5032718;28;20555;-76
2023/03/14 02:02:12;;;;;;;9.70;3.90;;;8.90;99.90;;;;;;5034132;28;20103;-75
2023/03/14 02:04:39;;;;;;;10.80;3.67;;;8.90;99.90;;;;;;5033778;28;20045;-76
2023/03/14 02:07:19;;;;;;;11.52;3.97;;;9.00;99.90;;;;;;5034009;28;20401;-76
2023/03/14 02:09:47;;;;;;;7.88;3.42;;;9.00;99.90;;;;;;5065966;28;20045;-77
2023/03/14 02:12:16;;;;;;;7.97;3.53;;;9.00;99.90;;;;;;5033365;28;20431;-76
2023/03/14 02:14:47;;;;;;;8.98;3.50;;;9.10;99.90;;;;;;5065500;28;20124;-76
2023/03/14 02:17:14;;;;;;;8.57;3.13;;;9.10;99.90;;;;;;5032577;28;20385;-77
2023/03/14 02:19:45;;;;;;;9.32;3.30;;;9.10;99.90;;;;;;5032628;28;20382;-76
2023/03/14 02:22:13;;;;;;;6.72;3.22;;;9.10;99.90;;;;;;5032617;28;20429;-78
2023/03/14 02:25:06;;;;;;;6.35;2.90;;;9.20;99.90;;;;;;5032021;28;20096;-77
2023/03/14 02:27:33;;;;;;;9.63;4.82;;;9.20;99.90;;;;;;5050502;28;20120;-77
2023/03/14 02:30:26;;;;;;;8.93;3.83;;;9.20;99.90;;;;;;5033652;28;20045;-75
2023/03/14 02:32:56;;;;;;;10.52;3.08;;;9.30;99.90;;;;;;5031221;28;20054;-76
2023/03/14 02:35:26;;;;;;;7.90;2.88;;;9.40;99.90;;;;;;5031958;28;20045;-76
2023/03/14 02:37:59;;;;;;;7.82;2.70;;;9.50;99.90;;;;;;5030577;28;20068;-76
2023/03/14 02:40:24;;;;;;;8.45;2.80;;;9.50;99.90;;;;;;5032027;28;20048;-76
2023/03/14 02:42:50;;;;;;;8.23;3.25;;;9.50;99.90;;;;;;5065323;28;20140;-76
2023/03/14 02:45:16;;;;;;;6.78;2.42;;;9.50;99.90;;;;;;5046379;28;20053;-76
2023/03/14 02:47:53;;;;;;;10.63;2.78;;;9.50;99.90;;;;;;5052964;28;20110;-76
2023/03/14 02:50:26;;;;;;;7.10;2.25;;;9.60;99.90;;;;;;5053437;28;20049;-76
2023/03/14 02:52:51;;;;;;;4.45;2.45;;;9.60;99.90;;;;;;5053324;28;20045;-76
2023/03/14 02:55:22;;;;;;;6.75;3.47;;;9.70;99.90;;;;;;5052918;28;20040;-76
2023/03/14 02:57:47;;;;;;;8.75;2.53;;;9.60;99.90;;;;;;5053005;28;20037;-76
2023/03/14 03:00:14;;;;;;;6.78;1.98;;;9.60;99.90;;;;;;5050751;28;20041;-77
2023/03/14 03:02:40;;;;;;;5.22;2.20;;;9.60;99.90;;;;;;5034373;28;20470;-75
2023/03/14 03:05:06;;;;;;;6.72;2.30;;;9.50;99.90;;;;;;5034660;28;20469;-76
2023/03/14 03:07:31;;;;;;;3.42;1.52;;;9.50;99.90;;;;;;5052878;28;20041;-77
2023/03/14 03:09:57;;;;;;;4.72;1.70;;;9.50;99.90;;;;;;5035074;28;20045;-77
2023/03/14 03:12:23;;;;;;;4.20;1.70;;;9.50;99.90;;;;;;5034937;28;20049;-77
2023/03/14 03:14:48;;;;;;;5.93;2.08;;;9.50;99.90;;;;;;5052415;28;20477;-77
2023/03/14 03:17:14;;;;;;;5.47;1.75;;;9.50;99.90;;;;;;5052940;28;20048;-77
2023/03/14 03:19:40;;;;;;;3.47;1.95;;;9.30;99.90;;;;;;5034236;28;20048;-77
2023/03/14 03:22:06;;;;;;;5.30;2.00;;;9.20;99.90;;;;;;5034675;28;20103;-77
2023/03/14 03:24:32;;;;;;;9.02;2.28;;;9.10;99.90;;;;;;5034386;28;20052;-77
2023/03/14 03:26:58;;;;;;;4.82;2.13;;;9.00;99.90;;;;;;5034471;28;20071;-77
2023/03/14 03:29:23;;;;;;;5.00;2.28;;;9.00;99.90;;;;;;5034604;28;20036;-75
2023/03/14 03:31:49;;;;;;;8.18;3.38;;;9.00;99.90;;;;;;5034051;28;20040;-79
2023/03/14 03:34:15;;;;;;;4.07;1.90;;;9.10;99.90;;;;;;5052265;28;20508;-78
2023/03/14 03:36:41;;;;;;;5.70;2.38;;;9.10;99.90;;;;;;5034389;28;20041;-76
2023/03/14 03:39:07;;;;;;;4.20;2.10;;;9.10;99.90;;;;;;5051913;28;20132;-76
2023/03/14 03:41:33;;;;;;;4.22;2.30;;;9.10;99.90;;;;;;5052193;28;20045;-75
2023/03/14 03:43:59;;;;;;;7.05;2.33;;;9.10;99.90;;;;;;5033429;28;20094;-76
2023/03/14 03:46:25;;;;;;;4.80;2.30;;;9.10;99.90;;;;;;5052157;28;20049;-76
2023/03/14 03:48:58;;;;;;;4.80;2.40;;;9.00;99.90;;;;;;5033775;28;20111;-76
2023/03/14 03:51:24;;;;;;;8.10;2.63;;;9.00;99.90;;;;;;5051797;28;20494;-78
2023/03/14 03:53:50;;;;;;;5.35;2.70;;;9.10;99.90;;;;;;5034354;28;20071;-79
2023/03/14 03:56:16;;;;;;;5.28;2.60;;;9.00;99.90;;;;;;5051698;28;20456;-76
2023/03/14 03:58:42;;;;;;;5.95;2.90;;;9.00;99.90;;;;;;5051886;28;20041;-78
2023/03/14 04:01:09;;;;;;;7.05;3.00;;;9.00;99.90;;;;;;5066712;28;20474;-76
2023/03/14 04:03:35;;;;;;;5.75;2.67;;;8.90;99.90;;;;;;5051976;28;20059;-77
2023/03/14 04:06:05;;;;;;;5.85;2.50;;;8.90;99.90;;;;;;5052272;28;20067;-78
2023/03/14 04:08:31;;;;;;;6.00;2.20;;;8.90;99.90;;;;;;5053619;28;20064;-77
2023/03/14 04:10:58;;;;;;;5.50;2.20;;;8.90;99.90;;;;;;5051808;28;20064;-78
2023/03/14 04:13:25;;;;;;;6.55;2.40;;;8.90;99.90;;;;;;5051133;28;20048;-77
2023/03/14 04:15:51;;;;;;;6.70;1.83;;;8.90;99.90;;;;;;5051251;28;20144;-76
2023/03/14 04:18:17;;;;;;;6.10;2.03;;;8.90;99.90;;;;;;5033475;28;20033;-77
2023/03/14 04:20:42;;;;;;;6.00;2.20;;;8.90;99.90;;;;;;5051438;28;20098;-76
2023/03/14 04:23:08;;;;;;;5.75;2.38;;;9.00;99.90;;;;;;5051913;28;20481;-77
2023/03/14 04:25:34;;;;;;;5.78;2.05;;;9.00;99.90;;;;;;5033509;28;20049;-77
2023/03/14 04:27:59;;;;;;;6.30;2.17;;;8.90;99.90;;;;;;5050201;28;20048;-79
2023/03/14 04:30:25;;;;;;;4.57;1.92;;;9.00;99.90;;;;;;5031114;28;20140;-75
2023/03/14 04:32:51;;;;;;;6.35;2.83;;;8.90;99.90;;;;;;5049280;28;20057;-77
2023/03/14 04:35:16;;;;;;;7.18;2.47;;;8.90;99.90;;;;;;5033921;28;20393;-76
2023/03/14 04:37:43;;;;;;;9.52;3.13;;;8.80;99.90;;;;;;5050331;28;20036;-76
2023/03/14 04:40:10;;;;;;;8.88;2.70;;;8.80;99.90;;;;;;5017332;28;20139;-76
2023/03/14 04:42:36;;;;;;;4.90;2.10;;;8.80;99.90;;;;;;5050947;28;20045;-82
2023/03/14 04:45:02;;;;;;;5.82;2.58;;;8.80;99.90;;;;;;5050775;28;20534;-75
2023/03/14 04:47:28;;;;;;;6.03;2.90;;;8.80;99.90;;;;;;5050619;28;20053;-75
2023/03/14 04:49:54;;;;;;;5.07;2.85;;;8.80;99.90;;;;;;5051145;28;20045;-76
2023/03/14 04:52:19;;;;;;;6.78;3.05;;;8.80;99.90;;;;;;5051021;28;20047;-76
2023/03/14 04:54:45;;;;;;;6.68;2.63;;;8.80;99.90;;;;;;5032921;28;20045;-76
2023/03/14 04:57:11;;;;;;;9.25;3.80;;;8.80;99.90;;;;;;5033442;28;20155;-76
2023/03/14 04:59:36;;;;;;;9.30;3.35;;;8.80;99.90;;;;;;5032900;28;20037;-77
2023/03/14 05:02:02;;;;;;;6.15;3.60;;;8.80;99.90;;;;;;5050748;28;20153;-75
2023/03/14 05:04:29;;;;;;;5.85;3.25;;;8.80;99.90;;;;;;5016788;28;20496;-79
2023/03/14 05:06:54;;;;;;;5.88;3.58;;;8.80;99.90;;;;;;5033643;28;20048;-76
2023/03/14 05:09:20;;;;;;;5.28;2.92;;;8.80;99.90;;;;;;5055106;28;20045;-76
2023/03/14 05:11:46;;;;;;;7.32;3.20;;;8.80;99.90;;;;;;5037222;28;20131;-78
2023/03/14 05:14:12;;;;;;;7.18;3.13;;;8.80;99.90;;;;;;5036298;28;20102;-75
2023/03/14 05:16:37;;;;;;;7.93;3.22;;;8.80;99.90;;;;;;5036824;28;20041;-76
2023/03/14 05:19:03;;;;;;;6.88;2.78;;;8.80;99.90;;;;;;5055139;28;20466;-74
2023/03/14 05:21:29;;;;;;;4.75;2.80;;;8.80;99.90;;;;;;5054515;28;20466;-76
2023/03/14 05:23:54;;;;;;;6.63;2.70;;;8.80;99.90;;;;;;5036951;28;20075;-76
2023/03/14 05:26:20;;;;;;;3.80;2.50;;;8.80;99.90;;;;;;5040761;28;20044;-78
2023/03/14 05:28:45;;;;;;;7.70;2.70;;;8.70;99.90;;;;;;5054767;28;20051;-76
2023/03/14 05:31:11;;;;;;;4.43;2.13;;;8.70;99.90;;;;;;5036505;28;20420;-76
2023/03/14 05:33:37;;;;;;;5.13;2.33;;;8.70;99.90;;;;;;5054600;28;20055;-75
2023/03/14 05:36:03;;;;;;;4.68;2.15;;;8.70;99.90;;;;;;5054526;28;20447;-76
2023/03/14 05:38:28;;;;;;;7.78;4.10;;;8.70;99.90;;;;;;5054526;28;20044;-77
2023/03/14 05:40:54;;;;;;;4.80;2.35;;;8.70;99.90;;;;;;5054115;28;20049;-76
2023/03/14 05:43:20;;;;;;;6.85;2.80;;;8.70;99.90;;;;;;5054518;28;20056;-76
2023/03/14 05:45:45;;;;;;;7.57;2.53;;;8.80;99.90;;;;;;5035788;28;20053;-75
2023/03/14 05:48:11;;;;;;;7.30;2.88;;;8.80;99.90;;;;;;5053977;28;20380;-77
2023/03/14 05:50:37;;;;;;;3.95;2.22;;;8.80;99.90;;;;;;5036567;28;20488;-76
2023/03/14 05:53:03;;;;;;;4.47;2.50;;;8.80;99.90;;;;;;5036202;28;20052;-76
2023/03/14 05:55:28;;;;;;;7.13;2.65;;;8.80;99.90;;;;;;5054211;28;20419;-78
2023/03/14 05:57:54;;;;;;;6.25;2.33;;;8.80;99.90;;;;;;5054071;28;20041;-77
2023/03/14 06:00:21;;;;;;;5.22;2.13;;;8.80;99.90;;;;;;5053786;28;20037;-78
2023/03/14 06:02:47;;;;;;;4.90;2.30;;;8.80;99.90;;;;;;5036326;28;20331;-76
2023/03/14 06:05:12;;;;;;;6.20;2.08;;;8.80;99.90;;;;;;5054213;28;20045;-78
2023/03/14 06:07:38;;;;;;;6.32;2.65;;;8.80;99.90;;;;;;5054083;28;20469;-75
2023/03/14 06:10:04;;;;;;;6.22;2.80;;;8.80;99.90;;;;;;5036115;28;20354;-74
2023/03/14 06:12:30;;;;;;;6.18;2.72;;;8.80;99.90;;;;;;5054023;28;20036;-74
2023/03/14 06:14:56;;;;;;;6.60;2.70;;;8.70;99.90;;;;;;5053341;28;20482;-76
2023/03/14 06:17:21;;;;;;;6.80;2.60;;;8.70;99.90;;;;;;5035588;28;20114;-75
2023/03/14 06:19:47;;;;;;;5.88;2.38;;;8.60;99.90;;;;;;5035630;28;20115;-75
2023/03/14 06:22:13;;;;;;;5.47;2.10;;;8.70;99.90;;;;;;5036276;28;20041;-76
2023/03/14 06:24:39;;;;;;;7.07;2.47;;;8.70;99.90;;;;;;5035806;28;20492;-75
2023/03/14 06:27:05;;;;;;;6.38;1.95;;;8.60;99.90;;;;;;5053902;28;20098;-77
2023/03/14 06:29:30;;;;;;;6.13;2.55;;;8.70;99.90;;;;;;5053400;28;20041;-76
2023/03/14 06:31:56;;;;;;;6.30;2.97;;;8.70;99.90;;;;;;5040399;28;20059;-76
2023/03/14 06:34:22;;;;;;;7.10;2.30;;;8.70;99.90;;;;;;5053105;28;20087;-76
2023/03/14 06:36:48;;;;;;;5.57;2.20;;;8.80;99.90;;;;;;5053294;28;20041;-76
2023/03/14 06:39:14;;;;;;;6.65;2.88;;;8.80;99.90;;;;;;5053262;28;20485;-76
2023/03/14 06:41:40;;;;;;;7.18;2.55;;;8.80;99.90;;;;;;5053347;28;20118;-78
2023/03/14 06:44:05;;;;;;;4.65;2.67;;;8.90;99.90;;;;;;5035094;28;20623;-77
2023/03/14 06:46:31;;;;;;;8.20;3.00;;;8.90;99.90;;;;;;5034808;28;20045;-76
2023/03/14 06:48:57;;;;;;;6.68;3.00;;;8.90;99.90;;;;;;5035713;28;20083;-75
2023/03/14 06:51:23;;;;;;;7.40;2.92;;;8.90;99.90;;;;;;5019075;28;20136;-75
2023/03/14 06:53:48;;;;;;;8.75;3.05;;;8.80;99.90;;;;;;5053275;28;20033;-75
2023/03/14 06:56:14;;;;;;;7.25;2.85;;;8.80;99.90;;;;;;5053149;28;20052;-76
2023/03/14 06:58:40;;;;;;;7.43;2.88;;;8.70;99.90;;;;;;5034922;28;20079;-75
2023/03/14 07:01:15;;;;;;;7.22;2.60;;;8.70;99.90;;;;;;5052208;28;20040;-75
2023/03/14 07:03:41;;;;;;;4.70;2.33;;;8.70;99.90;;;;;;5035131;28;20041;-75
2023/03/14 07:06:07;;;;;;;4.55;2.65;;;8.80;99.90;;;;;;5053312;28;20049;-75
2023/03/14 07:08:32;;;;;;;3.85;2.10;;;8.80;99.90;;;;;;5052329;28;20132;-75
2023/03/14 07:10:58;;;;;;;8.05;2.20;;;8.90;99.90;;;;;;5052744;28;20127;-76
2023/03/14 07:13:24;;;;;;;5.93;2.58;;;8.80;99.90;;;;;;5052975;28;20055;-67
2023/03/14 07:15:49;;;;;;;5.25;2.50;;;8.80;99.90;;;;;;5033874;28;20037;-67
2023/03/14 07:18:15;;;;;;;5.55;2.53;;;8.80;99.90;;;;;;5052765;28;20045;-66
2023/03/14 07:20:40;;;;;;;7.30;3.33;;;8.90;99.90;;;;;;5034682;28;20548;-66
2023/03/14 07:23:06;;;;;;;6.72;2.95;;;8.80;99.90;;;;;;5034661;28;20512;-66
2023/03/14 07:25:32;;;;;;;7.57;3.15;;;8.80;99.90;;;;;;5052032;28;20052;-67
2023/03/14 07:27:57;;;;;;;9.25;3.40;;;8.80;99.90;;;;;;5052165;28;20041;-68
2023/03/14 07:30:23;;;;;;;7.43;3.15;;;8.80;99.90;;;;;;5051869;28;20056;-80
2023/03/14 07:32:49;;;;;;;6.90;3.75;;;8.80;99.90;;;;;;5028895;28;20104;-76
2023/03/14 07:35:15;;;;;;;6.10;3.10;;;8.80;99.90;;;;;;5061580;28;20084;-77
2023/03/14 07:37:40;;;;;;;8.35;2.47;;;8.80;99.90;;;;;;5052024;28;20094;-77
2023/03/14 07:40:07;;;;;;;3.97;1.50;;;8.70;99.90;;;;;;5052170;28;20118;-76
2023/03/14 07:42:32;;;;;;;2.97;1.77;;;8.60;99.90;;;;;;5018543;28;20070;-77
2023/03/14 07:44:58;;;;;;;3.42;1.10;;;8.50;99.90;;;;;;5051272;28;20509;-77
2023/03/14 07:47:24;;;;;;;2.35;1.00;;;8.40;99.90;;;;;;5034159;28;20049;-77
2023/03/14 07:49:49;;;;;;;4.55;1.40;;;8.20;99.90;;;;;;5052220;28;20053;-75
2023/03/14 07:52:15;;;;;;;2.95;0.68;;;8.00;99.90;;;;;;5034401;28;20136;-75
2023/03/14 07:54:40;;;;;;;2.67;0.60;;;7.70;99.90;;;;;;5051944;28;20036;-75
2023/03/14 07:57:06;;;;;;;2.33;0.60;;;7.30;99.90;;;;;;5034379;28;20041;-77
2023/03/14 07:59:32;;;;;;;2.28;0.60;;;7.00;99.90;;;;;;5051836;28;20045;-83
2023/03/14 08:01:58;;;;;;;2.25;0.77;;;6.80;99.90;;;;;;5051668;28;20051;-76
2023/03/14 08:04:24;;;;;;;0.85;0.40;;;6.60;99.90;;;;;;5066241;28;20393;-77
2023/03/14 08:06:49;;;;;;;4.57;0.90;;;6.40;99.90;;;;;;5033032;28;20053;-82
2023/03/14 08:09:15;;;;;;;1.95;0.88;;;6.10;99.90;;;;;;5008806;28;20045;-76
2023/03/14 08:11:41;;;;;;;1.75;0.85;;;5.90;99.90;;;;;;5048637;28;20047;-78
2023/03/14 08:14:06;;;;;;;4.32;0.90;;;5.70;99.90;;;;;;5049309;28;20210;-77
2023/03/14 08:16:32;;;;;;;4.25;0.70;;;5.50;99.90;;;;;;5030569;28;20048;-75
2023/03/14 08:18:58;;;;;;;3.97;0.70;;;5.30;99.90;;;;;;5015774;28;20055;-80
2023/03/14 08:21:23;;;;;;;1.80;0.68;;;5.30;99.90;;;;;;5033048;28;20040;-78
2023/03/14 08:23:49;;;;;;;1.67;0.73;;;4.90;99.90;;;;;;5066690;28;20098;-79
2023/03/14 08:26:15;;;;;;;2.10;0.60;;;4.80;99.90;;;;;;5033591;28;20053;-77
2023/03/14 08:28:40;;;;;;;1.98;0.47;;;4.70;99.90;;;;;;5053508;28;20120;-75
2023/03/14 08:31:06;;;;;;;1.25;0.47;;;4.60;99.90;;;;;;5026254;28;20061;-75
2023/03/14 08:33:32;;;;;;;0.70;0.40;;;4.60;99.90;;;;;;5049823;28;20040;-77
2023/03/14 08:36:00;;;;;;;0.43;0.30;;;4.40;99.90;;;;;;5048790;28;20055;-75
2023/03/14 08:38:26;;;;;;;0.43;0.40;;;4.30;99.90;;;;;;5032135;28;20142;-76
2023/03/14 08:40:59;;;;;;;1.50;0.35;;;4.30;99.90;;;;;;5032943;28;20132;-75
2023/03/14 08:43:25;;;;;;;1.08;0.40;;;4.30;99.90;;;;;;5026646;28;20161;-77
2023/03/14 08:45:51;;;;;;;1.50;0.57;;;4.30;99.90;;;;;;5032436;28;20092;-75
2023/03/14 08:48:17;;;;;;;0.68;0.40;;;4.50;99.90;;;;;;5032681;28;20073;-78
2023/03/14 08:50:43;;;;;;;1.30;0.50;;;4.30;99.90;;;;;;5033274;28;20049;-75
2023/03/14 08:53:09;;;;;;;1.65;0.50;;;4.30;99.90;;;;;;5032587;28;20134;-76
2023/03/14 08:55:34;;;;;;;1.00;0.50;;;4.30;99.90;;;;;;5016725;28;20577;-76
2023/03/14 08:58:00;;;;;;;0.77;0.32;;;4.30;99.90;;;;;;5016755;28;20128;-74
2023/03/14 09:00:26;;;;;;;1.23;0.50;;;4.30;99.90;;;;;;5050863;28;20048;-76
2023/03/14 09:02:51;;;;;;;1.15;0.50;;;4.30;99.90;;;;;;5069299;28;20041;-75
2023/03/14 09:05:17;;;;;;;2.38;0.57;;;4.30;99.90;;;;;;5034392;28;20085;-76
2023/03/14 09:07:43;;;;;;;4.18;0.60;;;4.40;99.90;;;;;;5050521;28;20056;-74
2023/03/14 09:10:10;;;;;;;1.42;0.43;;;4.50;99.90;;;;;;5016561;28;20041;-77
2023/03/14 09:12:35;;;;;;;0.85;0.45;;;4.50;99.90;;;;;;5033181;28;20045;-76
2023/03/14 09:15:01;;;;;;;1.17;0.50;;;4.50;99.90;;;;;;5050242;28;20485;-77
2023/03/14 09:17:27;;;;;;;0.90;0.50;;;4.50;99.90;;;;;;5016534;28;20068;-76
2023/03/14 09:19:53;;;;;;;2.05;0.60;;;4.50;99.90;;;;;;5033210;28;20483;-75
2023/03/14 09:22:20;;;;;;;2.25;0.65;;;4.50;99.90;;;;;;5033156;28;20048;-76
2023/03/14 09:24:46;;;;;;;2.30;0.60;;;4.70;99.90;;;;;;5032632;28;20077;-75
2023/03/14 09:27:12;;;;;;;2.35;0.65;;;4.60;99.90;;;;;;5049436;28;20088;-76
2023/03/14 09:29:37;;;;;;;1.77;0.93;;;4.70;99.90;;;;;;5033189;28;20552;-76
2023/03/14 09:32:03;;;;;;;1.88;0.65;;;4.70;99.90;;;;;;5018860;28;20053;-77
2023/03/14 09:34:29;;;;;;;2.50;0.70;;;4.80;99.90;;;;;;5032594;28;20132;-76
2023/03/14 09:36:55;;;;;;;2.35;0.65;;;4.90;99.90;;;;;;5016139;28;20482;-78
2023/03/14 09:39:21;;;;;;;3.55;0.80;;;4.90;99.90;;;;;;5032424;28;20103;-79
2023/03/14 09:41:50;;;;;;;3.17;0.90;;;4.90;99.90;;;;;;5032710;28;20053;-76
2023/03/14 09:44:19;;;;;;;2.25;0.80;;;5.00;99.90;;;;;;5049411;28;20098;-77
2023/03/14 09:46:50;;;;;;;3.20;1.08;;;5.10;99.90;;;;;;5030439;28;20057;-77
2023/03/14 09:49:28;;;;;;;4.40;0.80;;;5.40;99.90;;;;;;5030929;28;20048;-77
2023/03/14 09:51:56;;;;;;;9.32;2.15;;;5.50;99.90;;;;;;5047650;28;20060;-78
2023/03/14 09:54:37;;;;;;;3.70;1.00;;;5.50;99.90;;;;;;5016893;28;20056;-77
2023/03/14 09:57:05;;;;;;;3.63;0.80;;;5.60;99.90;;;;;;5036475;28;20483;-76
2023/03/14 09:59:31;;;;;;;6.10;1.42;;;5.70;99.90;;;;;;5054160;28;20123;-77
2023/03/14 10:02:15;;;;;;;6.35;1.20;;;5.70;99.90;;;;;;5019573;28;20041;-76
2023/03/14 10:04:44;;;;;;;3.53;1.10;;;5.70;99.90;;;;;;5029240;28;20136;-77
2023/03/14 10:07:21;;;;;;;5.60;1.48;;;5.80;99.90;;;;;;5036016;28;20051;-75
2023/03/14 10:09:51;;;;;;;10.45;1.65;;;5.80;99.90;;;;;;5043222;28;20383;-78
2023/03/14 10:12:18;;;;;;;5.55;1.75;;;5.90;99.90;;;;;;5002327;28;20099;-77
2023/03/14 10:14:50;;;;;;;7.53;1.33;;;6.00;99.90;;;;;;5053059;28;20047;-76
2023/03/14 10:17:17;;;;;;;7.40;1.50;;;6.00;99.90;;;;;;5035019;28;20084;-78
2023/03/14 10:20:03;;;;;;;7.13;1.40;;;6.00;99.90;;;;;;5052223;28;20060;-77
2023/03/14 10:22:33;;;;;;;5.15;1.42;;;6.00;99.90;;;;;;5051801;28;20057;-77
2023/03/14 10:25:04;;;;;;;6.10;1.30;;;5.90;99.90;;;;;;5034897;28;20406;-79
2023/03/14 10:27:35;;;;;;;8.07;1.88;;;5.90;99.90;;;;;;5035474;28;20037;-77
2023/03/14 10:30:06;;;;;;;6.18;1.80;;;5.80;99.90;;;;;;5035810;28;20041;-77
2023/03/14 10:32:37;;;;;;;6.60;1.40;;;5.90;99.90;;;;;;5052852;28;20080;-77
2023/03/14 10:35:21;;;;;;;10.82;1.92;;;5.90;99.90;;;;;;5035117;28;20127;-74
2023/03/14 10:37:55;;;;;;;8.27;1.83;;;5.90;99.90;;;;;;5050801;28;20088;-78
2023/03/14 10:40:27;;;;;;;7.40;1.67;;;6.00;99.90;;;;;;5035168;28;20127;-76
2023/03/14 10:42:55;;;;;;;9.48;2.80;;;6.00;99.90;;;;;;5051944;28;20056;-77
2023/03/14 10:45:32;;;;;;;5.55;1.50;;;6.10;99.90;;;;;;5018092;28;20097;-80
2023/03/14 10:48:37;;;;;;;7.15;1.80;;;6.10;99.90;;;;;;5033964;28;20176;-79
2023/03/14 10:51:10;;;;;;;6.95;1.92;;;6.30;99.90;;;;;;5018947;28;20049;-80
2023/03/14 10:53:55;;;;;;;8.00;1.65;;;6.40;99.90;;;;;;5051550;28;20351;-77
2023/03/14 10:56:22;;;;;;;8.02;1.83;;;6.40;99.90;;;;;;5051813;28;20078;-79
2023/03/14 10:58:50;;;;;;;8.73;1.50;;;6.40;99.90;;;;;;5033538;28;20488;-79
2023/03/14 11:01:38;;;;;;;10.43;2.10;;;6.40;99.90;;;;;;5052170;28;20426;-80
2023/03/14 11:04:24;;;;;;;7.22;1.55;;;6.30;99.90;;;;;;5034692;28;20048;-79
2023/03/14 11:07:02;;;;;;;8.27;2.22;;;6.20;99.90;;;;;;5034534;28;20544;-82
2023/03/14 11:10:05;;;;;;;9.20;2.08;;;6.20;99.90;;;;;;5034377;28;20476;-80
2023/03/14 11:13:25;;;;;;;6.75;1.60;;;6.20;99.90;;;;;;5033909;28;20465;-81
2023/03/14 11:16:02;;;;;;;9.45;1.67;;;6.20;99.90;;;;;;4981368;28;20049;-80
2023/03/14 11:18:39;;;;;;;;;;;6.30;99.90;;;;;;5027251;28;20510;-80
2023/03/14 11:21:47;;;;;;;6.13;2.05;;;6.50;99.90;;;;;;5020911;28;20003;-85
2023/03/14 11:24:38;;;;;;;6.35;1.75;;;6.60;99.90;;;;;;5050996;28;20080;-81
2023/03/14 11:27:16;;;;;;;7.25;1.58;;;6.60;99.90;;;;;;5034127;28;20060;-80
2023/03/14 11:30:11;;;;;;;10.95;2.45;;;6.60;99.90;;;;;;5017702;28;20055;-80
2023/03/14 11:32:56;;;;;;;7.35;2.08;;;6.60;99.90;;;;;;5047408;28;20052;-80
2023/03/14 11:35:36;;;;;;;9.40;1.50;;;6.70;99.90;;;;;;5026825;28;20092;-70
2023/03/14 11:38:22;;;;;;;4.95;1.50;;;6.70;99.90;;;;;;5056805;28;20379;-69
2023/03/14 11:40:49;;;;;;;6.70;1.35;;;6.70;99.90;;;;;;5033811;28;20049;-70
2023/03/14 11:43:22;;;;;;;5.32;1.45;;;6.70;99.90;;;;;;5051733;28;20055;-68
2023/03/14 11:45:51;;;;;;;8.38;1.70;;;6.80;99.90;;;;;;5032487;28;20513;-70
2023/03/14 11:48:42;;;;;;;6.65;1.50;;;6.80;99.90;;;;;;5051630;28;20045;-69
2023/03/14 11:51:25;;;;;;;5.70;1.30;;;6.80;99.90;;;;;;5033617;28;20041;-69
2023/03/14 11:54:17;;;;;;;7.28;2.33;;;6.80;99.90;;;;;;5062176;28;20055;-69
2023/03/14 11:56:42;;;;;;;8.07;1.80;;;6.70;99.90;;;;;;5021043;28;20433;-69
2023/03/14 11:59:21;;;;;;;6.45;1.70;;;6.80;99.90;;;;;;5066410;28;20056;-69
2023/03/14 12:02:01;;;;;;;5.30;1.60;;;7.00;99.90;;;;;;5051423;28;20037;-68
2023/03/14 12:04:51;;;;;;;5.20;1.20;;;7.10;99.90;;;;;;5016063;28;20068;-69
2023/03/14 12:07:21;;;;;;;5.65;1.13;;;7.40;99.90;;;;;;5042068;28;20044;-70
2023/03/14 12:09:49;;;;;;;5.25;1.20;;;7.90;99.90;;;;;;5027831;28;20064;-77
2023/03/14 12:12:22;;;;;;;8.85;1.23;;;8.00;99.90;;;;;;5051025;28;20033;-80
2023/03/14 12:15:00;;;;;;;6.65;2.42;;;7.70;99.90;;;;;;5050313;28;20122;-80
2023/03/14 12:17:35;;;;;;;5.93;1.00;;;7.40;99.90;;;;;;5032970;28;20194;-83
2023/03/14 12:20:09;;;;;;;5.88;1.58;;;7.20;99.90;;;;;;5034047;28;20139;-79
2023/03/14 12:22:42;;;;;;;3.15;1.10;;;7.10;99.90;;;;;;5033466;28;20478;-83
2023/03/14 12:25:11;;;;;;;7.07;1.17;;;7.20;99.90;;;;;;5024117;28;20049;-81
2023/03/14 12:27:56;;;;;;;6.97;1.40;;;7.30;99.90;;;;;;5033083;28;20053;-78
2023/03/14 12:30:41;;;;;;;5.70;1.02;;;7.40;99.90;;;;;;5033236;28;20059;-79
2023/03/14 12:33:09;;;;;;;3.05;1.05;;;7.50;99.90;;;;;;5050570;28;20098;-78
2023/03/14 12:35:44;;;;;;;3.35;1.10;;;7.60;99.90;;;;;;5032742;28;20048;-79
2023/03/14 12:38:24;;;;;;;2.72;0.88;;;7.60;99.90;;;;;;5033296;28;20045;-80
2023/03/14 12:41:20;;;;;;;3.78;0.70;;;7.40;99.90;;;;;;5050592;28;20077;-79
2023/03/14 12:43:46;;;;;;;3.60;0.93;;;7.50;99.90;;;;;;5051082;28;20062;-80
2023/03/14 12:46:18;;;;;;;4.10;1.10;;;8.00;99.90;;;;;;5033203;28;20048;-80
2023/03/14 12:48:55;;;;;;;2.45;0.85;;;8.50;99.90;;;;;;5035089;28;20398;-80
2023/03/14 12:51:35;;;;;;;2.90;0.73;;;9.10;99.90;;;;;;5019183;28;20052;-82
2023/03/14 12:54:07;;;;;;;2.72;0.80;;;9.40;99.90;;;;;;5030593;28;20045;-80
2023/03/14 12:57:17;;;;;;;3.30;0.90;;;9.50;99.90;;;;;;5028558;28;20045;-80
2023/03/14 12:59:56;;;;;;;5.53;1.05;;;9.50;99.90;;;;;;5032831;28;20079;-81
2023/03/14 13:02:28;;;;;;;5.70;1.48;;;9.20;99.90;;;;;;5045533;28;20162;-80
2023/03/14 13:05:05;;;;;;;4.15;2.17;;;8.60;99.90;;;;;;5032820;28;20061;-78
2023/03/14 13:07:47;;;;;;;3.25;1.10;;;8.20;99.90;;;;;;5033137;28;20481;-80